createdAt,value
2023-11-30T00:00:18.792Z,-6.98
2023-11-30T00:02:45.818Z,-6.85
2023-11-30T00:05:12.879Z,-6.88
2023-11-30T00:07:39.859Z,-6.79
2023-11-30T00:10:07.409Z,-6.92
2023-11-30T00:12:34.472Z,-7.02
2023-11-30T00:15:01.486Z,-7.22
2023-11-30T00:17:28.555Z,-7.08
2023-11-30T00:19:55.540Z,-7.10
2023-11-30T00:22:22.532Z,-7.05
2023-11-30T00:24:49.664Z,-7.02
2023-11-30T00:27:16.704Z,-7.01
2023-11-30T00:29:44.002Z,-7.11
2023-11-30T00:32:11.101Z,-7.10
2023-11-30T00:34:38.077Z,-7.16
2023-11-30T00:37:05.093Z,-7.21
2023-11-30T00:39:32.103Z,-6.97
2023-11-30T00:41:59.175Z,-6.90
2023-11-30T00:44:26.211Z,-6.84
2023-11-30T00:46:53.206Z,-6.77
2023-11-30T00:49:20.112Z,-6.87
2023-11-30T00:51:47.214Z,-6.85
2023-11-30T00:54:14.216Z,-7.11
2023-11-30T00:56:41.182Z,-7.09
2023-11-30T00:59:08.175Z,-6.95
2023-11-30T01:01:35.248Z,-6.83
2023-11-30T01:04:02.319Z,-6.82
2023-11-30T01:06:29.645Z,-6.87
2023-11-30T01:08:56.625Z,-6.89
2023-11-30T01:11:23.712Z,-6.70
2023-11-30T01:13:50.734Z,-6.88
2023-11-30T01:16:17.850Z,-6.95
2023-11-30T01:18:44.917Z,-6.86
2023-11-30T01:21:11.976Z,-6.77
2023-11-30T01:23:39.384Z,-6.70
2023-11-30T01:26:06.577Z,-6.68
2023-11-30T01:28:33.561Z,-6.78
2023-11-30T01:31:01.767Z,-6.73
2023-11-30T01:33:29.227Z,-6.69
2023-11-30T01:35:56.314Z,-6.67
2023-11-30T01:38:23.360Z,-6.60
2023-11-30T01:40:50.460Z,-6.73
2023-11-30T01:43:19.583Z,-6.73
2023-11-30T01:45:46.618Z,-6.82
2023-11-30T01:48:14.617Z,-6.66
2023-11-30T01:50:42.344Z,-6.43
2023-11-30T01:53:09.777Z,-6.64
2023-11-30T01:55:37.272Z,-6.70
2023-11-30T01:58:05.583Z,-6.83
2023-11-30T02:00:33.379Z,-6.96
2023-11-30T02:03:02.420Z,-6.89
2023-11-30T02:05:29.337Z,-7.00
2023-11-30T02:07:56.488Z,-6.98
2023-11-30T02:10:26.584Z,-7.15
2023-11-30T02:12:53.548Z,-7.06
2023-11-30T02:15:20.600Z,-7.14
2023-11-30T02:17:47.641Z,-7.21
2023-11-30T02:20:14.744Z,-7.25
2023-11-30T02:22:42.559Z,-7.21
2023-11-30T02:25:09.576Z,-7.37
2023-11-30T02:27:36.570Z,-7.30
2023-11-30T02:30:03.736Z,-7.34
2023-11-30T02:32:30.728Z,-7.46
2023-11-30T02:34:57.702Z,-7.43
2023-11-30T02:37:24.741Z,-7.35
2023-11-30T02:39:51.617Z,-7.47
2023-11-30T02:42:19.942Z,-7.42
2023-11-30T02:44:46.930Z,-7.45
2023-11-30T02:47:13.989Z,-7.53
2023-11-30T02:49:40.952Z,-7.43
2023-11-30T02:52:07.951Z,-7.35
2023-11-30T02:54:34.997Z,-7.29
2023-11-30T02:57:02.045Z,-7.25
2023-11-30T02:59:29.101Z,-7.34
2023-11-30T03:01:56.186Z,-7.26
2023-11-30T03:04:23.301Z,-7.17
2023-11-30T03:06:53.159Z,-7.17
2023-11-30T03:09:20.239Z,-7.09
2023-11-30T03:11:47.203Z,-7.09
2023-11-30T03:14:14.226Z,-7.08
2023-11-30T03:16:41.273Z,-7.31
2023-11-30T03:19:16.349Z,-7.38
2023-11-30T03:21:44.812Z,-7.41
2023-11-30T03:24:12.421Z,-7.34
2023-11-30T03:26:39.483Z,-7.30
2023-11-30T03:29:06.575Z,-7.28
2023-11-30T03:31:34.291Z,-7.20
2023-11-30T03:34:02.207Z,-7.22
2023-11-30T03:36:29.269Z,-7.29
2023-11-30T03:38:57.366Z,-7.32
2023-11-30T03:41:24.925Z,-7.36
2023-11-30T03:43:53.010Z,-7.41
2023-11-30T03:46:22.819Z,-7.49
2023-11-30T03:48:49.893Z,-7.52
2023-11-30T03:51:16.890Z,-7.59
2023-11-30T03:53:43.905Z,-7.61
2023-11-30T03:56:11.106Z,-7.75
2023-11-30T03:58:38.050Z,-7.71
2023-11-30T04:01:06.246Z,-7.55
2023-11-30T04:03:34.414Z,-7.75
2023-11-30T04:06:01.390Z,-7.74
2023-11-30T04:08:28.344Z,-7.86
2023-11-30T04:10:55.285Z,-7.95
2023-11-30T04:13:22.200Z,-7.91
2023-11-30T04:15:49.217Z,-8.13
2023-11-30T04:18:16.226Z,-8.14
2023-11-30T04:20:43.282Z,-8.00
2023-11-30T04:23:10.260Z,-8.03
2023-11-30T04:25:37.318Z,-7.91
2023-11-30T04:28:04.486Z,-7.99
2023-11-30T04:30:31.477Z,-8.08
2023-11-30T04:32:59.025Z,-7.89
2023-11-30T04:35:26.821Z,-7.89
2023-11-30T04:37:53.765Z,-7.95
2023-11-30T04:40:22.269Z,-7.86
2023-11-30T04:42:49.274Z,-7.93
2023-11-30T04:45:16.397Z,-7.88
2023-11-30T04:47:44.041Z,-7.98
2023-11-30T04:50:11.672Z,-8.09
2023-11-30T04:52:39.330Z,-7.82
2023-11-30T04:55:07.496Z,-7.68
2023-11-30T04:57:34.659Z,-7.65
2023-11-30T05:00:01.827Z,-7.66
2023-11-30T05:02:29.070Z,-7.59
2023-11-30T05:04:56.405Z,-7.52
2023-11-30T05:07:23.520Z,-7.40
2023-11-30T05:09:50.581Z,-7.30
2023-11-30T05:12:17.705Z,-7.42
2023-11-30T05:14:45.014Z,-7.26
2023-11-30T05:17:12.070Z,-7.24
2023-11-30T05:19:39.123Z,-7.23
2023-11-30T05:22:06.252Z,-7.27
2023-11-30T05:24:33.472Z,-7.16
2023-11-30T05:27:00.505Z,-7.07
2023-11-30T05:29:27.630Z,-7.25
2023-11-30T05:31:54.574Z,-7.19
2023-11-30T05:34:21.503Z,-7.16
2023-11-30T05:36:48.424Z,-7.05
2023-11-30T05:39:16.788Z,-7.05
2023-11-30T05:41:43.955Z,-7.06
2023-11-30T05:44:10.924Z,-7.00
2023-11-30T05:46:39.268Z,-6.93
2023-11-30T05:49:06.487Z,-6.80
2023-11-30T05:51:34.052Z,-6.80
2023-11-30T05:54:01.265Z,-6.75
2023-11-30T05:56:28.273Z,-6.68
2023-11-30T05:58:55.312Z,-6.72
2023-11-30T06:01:22.268Z,-6.65
2023-11-30T06:03:49.416Z,-6.67
2023-11-30T06:06:16.441Z,-6.60
2023-11-30T06:08:43.337Z,-6.64
2023-11-30T06:11:10.355Z,-6.58
2023-11-30T06:13:37.308Z,-6.55
2023-11-30T06:16:04.606Z,-6.60
2023-11-30T06:18:32.001Z,-6.66
2023-11-30T06:20:59.318Z,-6.64
2023-11-30T06:23:26.715Z,-6.58
2023-11-30T06:25:53.834Z,-6.46
2023-11-30T06:28:23.695Z,-6.34
2023-11-30T06:30:50.665Z,-6.23
2023-11-30T06:33:17.892Z,-6.35
2023-11-30T06:35:44.956Z,-6.26
2023-11-30T06:38:13.052Z,-6.21
2023-11-30T06:40:40.113Z,-6.15
2023-11-30T06:43:07.136Z,-6.12
2023-11-30T06:45:34.348Z,-6.16
2023-11-30T06:48:01.525Z,-6.20
2023-11-30T06:50:28.613Z,-6.11
2023-11-30T06:52:55.674Z,-6.00
2023-11-30T06:55:23.521Z,-5.96
2023-11-30T06:57:50.443Z,-5.91
2023-11-30T07:00:19.382Z,-5.96
2023-11-30T07:02:46.433Z,-5.95
2023-11-30T07:05:14.472Z,-5.86
2023-11-30T07:07:41.543Z,-5.85
2023-11-30T07:10:08.931Z,-6.05
2023-11-30T07:12:36.186Z,-6.05
2023-11-30T07:15:05.002Z,-5.91
2023-11-30T07:17:32.128Z,-5.86
2023-11-30T07:19:59.066Z,-5.79
2023-11-30T07:22:26.542Z,-5.93
2023-11-30T07:24:53.746Z,-5.76
2023-11-30T07:27:21.650Z,-5.63
2023-11-30T07:29:48.983Z,-5.57
2023-11-30T07:32:19.088Z,-5.53
2023-11-30T07:34:47.511Z,-5.53
2023-11-30T07:37:20.624Z,-5.50
2023-11-30T07:39:47.732Z,-5.37
2023-11-30T07:44:48.570Z,-5.31
2023-11-30T07:47:15.574Z,-5.20
2023-11-30T07:49:42.513Z,-5.15
2023-11-30T07:52:09.550Z,-5.18
2023-11-30T07:54:36.426Z,-5.06
2023-11-30T07:57:03.698Z,-5.06
2023-11-30T07:59:30.920Z,-4.99
2023-11-30T08:01:57.986Z,-4.79
2023-11-30T08:04:25.054Z,-4.65
2023-11-30T08:06:52.270Z,-4.67
2023-11-30T08:09:19.234Z,-4.51
2023-11-30T08:11:46.251Z,-4.46
2023-11-30T08:14:13.454Z,-4.33
2023-11-30T08:16:41.989Z,-4.20
2023-11-30T08:19:09.418Z,-4.35
2023-11-30T08:21:41.547Z,-4.23
2023-11-30T08:24:10.141Z,-4.27
2023-11-30T08:26:37.488Z,-4.20
2023-11-30T08:29:04.822Z,-3.94
2023-11-30T08:31:31.878Z,-3.56
2023-11-30T08:33:58.866Z,-4.05
2023-11-30T08:36:26.394Z,-4.07
2023-11-30T08:38:53.417Z,-4.03
2023-11-30T08:41:21.666Z,-4.29
2023-11-30T08:43:49.466Z,-3.98
2023-11-30T08:46:16.469Z,-4.02
2023-11-30T08:48:43.539Z,-3.90
2023-11-30T08:51:12.111Z,-3.67
2023-11-30T08:53:39.190Z,-3.61
2023-11-30T08:56:06.987Z,-3.48
2023-11-30T08:58:34.673Z,-3.64
2023-11-30T09:01:01.712Z,-3.59
2023-11-30T09:03:28.777Z,-3.35
2023-11-30T09:05:56.246Z,-3.36
2023-11-30T09:08:23.307Z,-3.27
2023-11-30T09:10:50.744Z,-3.32
2023-11-30T09:13:17.833Z,-3.63
2023-11-30T09:15:44.881Z,-3.59
2023-11-30T09:18:12.699Z,-3.45
2023-11-30T09:20:39.682Z,-3.33
2023-11-30T09:23:07.345Z,-3.47
2023-11-30T09:25:34.660Z,-3.66
2023-11-30T09:28:01.945Z,-3.32
2023-11-30T09:30:28.998Z,-3.44
2023-11-30T09:32:56.225Z,-3.39
2023-11-30T09:35:23.372Z,-3.27
2023-11-30T09:37:50.386Z,-3.20
2023-11-30T09:40:17.342Z,-3.04
2023-11-30T09:42:44.430Z,-2.98
2023-11-30T09:45:11.710Z,-2.75
2023-11-30T09:47:39.178Z,-2.67
2023-11-30T09:50:07.241Z,-2.86
2023-11-30T09:52:34.267Z,-2.77
2023-11-30T09:55:02.084Z,-2.94
2023-11-30T09:57:29.069Z,-2.62
2023-11-30T09:59:56.485Z,-2.66
2023-11-30T10:02:24.136Z,-2.78
2023-11-30T10:04:51.511Z,-2.62
2023-11-30T10:07:19.196Z,-2.57
2023-11-30T10:09:46.137Z,-2.78
2023-11-30T10:12:13.268Z,-2.89
2023-11-30T10:14:40.309Z,-2.45
2023-11-30T10:17:07.848Z,-2.28
2023-11-30T10:19:35.045Z,-2.50
2023-11-30T10:22:02.153Z,-2.72
2023-11-30T10:24:29.210Z,-2.62
2023-11-30T10:27:00.379Z,-2.38
2023-11-30T10:29:29.045Z,-2.10
2023-11-30T10:31:57.974Z,-2.39
2023-11-30T10:34:34.762Z,-2.42
2023-11-30T10:39:51.375Z,-2.00
2023-11-30T10:42:18.590Z,-2.07
2023-11-30T10:44:48.103Z,-1.97
2023-11-30T10:47:15.509Z,-1.80
2023-11-30T10:49:43.858Z,-1.96
2023-11-30T10:52:11.250Z,-2.00
2023-11-30T10:54:50.801Z,-2.17
2023-11-30T10:57:19.932Z,-2.02
2023-11-30T10:59:49.329Z,-2.01
2023-11-30T11:02:16.914Z,-1.87
2023-11-30T11:04:44.311Z,-1.84
2023-11-30T11:07:14.883Z,-2.02
2023-11-30T11:09:43.387Z,-1.89
2023-11-30T11:12:21.331Z,-1.86
2023-11-30T11:14:52.190Z,-1.96
2023-11-30T11:17:22.724Z,-2.13
2023-11-30T11:19:49.667Z,-1.78
2023-11-30T11:22:25.024Z,-1.68
2023-11-30T11:24:59.759Z,-2.06
2023-11-30T11:27:29.597Z,-1.71
2023-11-30T11:30:02.951Z,-1.64
2023-11-30T11:32:32.470Z,-1.63
2023-11-30T11:34:59.446Z,-1.69
2023-11-30T11:37:26.489Z,-1.53
2023-11-30T11:39:53.601Z,-1.47
2023-11-30T11:42:20.751Z,-1.51
2023-11-30T11:44:49.999Z,-1.13
2023-11-30T11:47:17.441Z,-1.24
2023-11-30T11:49:44.702Z,-1.38
2023-11-30T11:52:11.779Z,-1.27
2023-11-30T11:54:38.748Z,-1.23
2023-11-30T11:57:06.280Z,-1.00
2023-11-30T11:59:33.219Z,-1.25
2023-11-30T12:02:01.196Z,-1.09
2023-11-30T12:04:30.398Z,-0.98
2023-11-30T12:06:58.420Z,-0.94
2023-11-30T12:09:25.571Z,-1.06
2023-11-30T12:11:53.029Z,-0.94
2023-11-30T12:14:21.683Z,-1.00
2023-11-30T12:16:48.729Z,-1.17
2023-11-30T12:19:20.564Z,-1.12
2023-11-30T12:21:48.169Z,-1.15
2023-11-30T12:24:16.000Z,-1.23
2023-11-30T12:26:43.209Z,-1.24
2023-11-30T12:29:11.408Z,-1.00
2023-11-30T12:31:38.433Z,-0.96
2023-11-30T12:34:05.696Z,-1.05
2023-11-30T12:36:32.740Z,-1.13
2023-11-30T12:38:59.794Z,-1.24
2023-11-30T12:41:26.708Z,-1.34
2023-11-30T12:43:53.664Z,-1.17
2023-11-30T12:46:21.450Z,-0.91
2023-11-30T12:48:48.506Z,-0.90
2023-11-30T12:51:16.422Z,-1.15
2023-11-30T12:53:43.395Z,-1.05
2023-11-30T12:56:10.755Z,-1.12
2023-11-30T12:58:38.019Z,-0.98
2023-11-30T13:01:06.463Z,-1.13
2023-11-30T13:03:33.469Z,-1.00
2023-11-30T13:06:00.456Z,-1.06
2023-11-30T13:08:27.442Z,-0.86
2023-11-30T13:10:54.628Z,-0.95
2023-11-30T13:13:28.670Z,-0.76
2023-11-30T13:16:03.168Z,-0.53
2023-11-30T13:18:31.524Z,-0.61
2023-11-30T13:20:58.547Z,-0.86
2023-11-30T13:23:25.921Z,-0.69
2023-11-30T13:25:53.305Z,-0.69
2023-11-30T13:28:20.278Z,-0.90
2023-11-30T13:30:47.321Z,-0.94
2023-11-30T13:33:14.340Z,-1.05
2023-11-30T13:35:41.571Z,-1.03
2023-11-30T13:38:11.738Z,-1.04
2023-11-30T13:40:38.841Z,-1.14
2023-11-30T13:43:05.820Z,-1.18
2023-11-30T13:45:33.074Z,-0.87
2023-11-30T13:48:00.032Z,-0.75
2023-11-30T13:50:36.624Z,-0.67
2023-11-30T13:53:04.846Z,-0.76
2023-11-30T13:55:31.757Z,-0.62
2023-11-30T13:57:58.874Z,-0.46
2023-11-30T14:00:26.155Z,-0.72
2023-11-30T14:02:53.402Z,-0.87
2023-11-30T14:05:20.477Z,-1.05
2023-11-30T14:07:47.770Z,-1.08
2023-11-30T14:10:15.509Z,-0.94
2023-11-30T14:12:43.917Z,-0.73
2023-11-30T14:15:12.534Z,-0.71
2023-11-30T14:17:40.181Z,-0.70
2023-11-30T14:20:08.662Z,-0.69
2023-11-30T14:22:36.001Z,-0.68
2023-11-30T14:25:03.917Z,-0.63
2023-11-30T14:27:30.996Z,-0.65
2023-11-30T14:29:57.968Z,-0.72
2023-11-30T14:32:25.093Z,-0.79
2023-11-30T14:34:52.107Z,-0.75
2023-11-30T14:37:19.469Z,-0.84
2023-11-30T14:39:46.535Z,-0.87
2023-11-30T14:42:14.466Z,-0.96
2023-11-30T14:44:42.257Z,-0.77
2023-11-30T14:47:10.982Z,-0.95
2023-11-30T14:49:39.301Z,-0.86
2023-11-30T14:52:09.708Z,-0.82
2023-11-30T14:54:38.952Z,-0.84
2023-11-30T14:57:09.884Z,-0.95
2023-11-30T14:59:38.575Z,-1.31
2023-11-30T15:02:05.996Z,-1.17
2023-11-30T15:04:33.115Z,-1.25
2023-11-30T15:07:01.438Z,-1.22
2023-11-30T15:09:28.490Z,-1.24
2023-11-30T15:11:55.672Z,-1.33
2023-11-30T15:14:22.706Z,-1.47
2023-11-30T15:16:49.970Z,-1.54
2023-11-30T15:19:17.057Z,-1.60
2023-11-30T15:21:45.050Z,-1.65
2023-11-30T15:24:12.155Z,-1.70
2023-11-30T15:26:39.134Z,-1.66
2023-11-30T15:29:06.148Z,-1.68
2023-11-30T15:31:33.132Z,-1.63
2023-11-30T15:34:00.664Z,-1.67
2023-11-30T15:36:27.840Z,-1.69
2023-11-30T15:38:55.006Z,-1.64
2023-11-30T15:41:22.076Z,-1.68
2023-11-30T15:43:49.125Z,-1.72
2023-11-30T15:46:16.244Z,-1.71
2023-11-30T15:48:43.644Z,-1.68
2023-11-30T15:51:12.599Z,-1.73
2023-11-30T15:53:40.810Z,-1.77
2023-11-30T15:56:09.127Z,-1.79
2023-11-30T15:58:38.205Z,-1.78
2023-11-30T16:01:05.313Z,-2.02
2023-11-30T16:03:32.386Z,-1.76
2023-11-30T16:06:00.964Z,-2.03
2023-11-30T16:08:28.338Z,-1.94
2023-11-30T16:10:55.354Z,-1.93
2023-11-30T16:13:22.341Z,-2.03
2023-11-30T16:15:49.420Z,-2.15
2023-11-30T16:18:16.480Z,-2.20
2023-11-30T16:20:43.728Z,-2.25
2023-11-30T16:23:11.454Z,-2.36
2023-11-30T16:25:38.469Z,-2.36
2023-11-30T16:28:05.652Z,-2.45
2023-11-30T16:30:34.108Z,-2.29
2023-11-30T16:33:01.321Z,-2.43
2023-11-30T16:35:29.027Z,-2.41
2023-11-30T16:37:56.173Z,-2.22
2023-11-30T16:40:23.459Z,-2.29
2023-11-30T16:42:50.543Z,-2.20
2023-11-30T16:45:17.544Z,-2.24
2023-11-30T16:47:45.624Z,-2.42
2023-11-30T16:50:15.859Z,-2.24
2023-11-30T16:52:43.940Z,-2.35
2023-11-30T16:55:13.467Z,-2.43
2023-11-30T16:57:40.584Z,-2.46
2023-11-30T17:00:08.493Z,-2.30
2023-11-30T17:02:36.232Z,-2.27
2023-11-30T17:05:03.320Z,-2.26
2023-11-30T17:07:30.322Z,-2.52
2023-11-30T17:09:58.782Z,-2.47
2023-11-30T17:12:25.974Z,-2.59
2023-11-30T17:14:52.933Z,-2.43
2023-11-30T17:17:19.948Z,-2.42
2023-11-30T17:19:46.875Z,-2.29
2023-11-30T17:22:13.858Z,-2.41
2023-11-30T17:24:43.026Z,-2.27
2023-11-30T17:27:10.174Z,-2.22
2023-11-30T17:29:39.173Z,-2.28
2023-11-30T17:32:10.103Z,-2.18
2023-11-30T17:34:37.557Z,-2.19
2023-11-30T17:37:04.940Z,-2.10
2023-11-30T17:39:32.186Z,-2.11
2023-11-30T17:41:59.184Z,-2.18
2023-11-30T17:44:26.753Z,-2.07
2023-11-30T17:46:54.292Z,-2.07
2023-11-30T17:49:24.047Z,-2.10
2023-11-30T17:51:51.764Z,-2.06
2023-11-30T17:54:19.233Z,-2.02
2023-11-30T17:56:46.262Z,-2.10
2023-11-30T17:59:13.356Z,-2.02
2023-11-30T18:01:40.467Z,-1.96
2023-11-30T18:04:07.603Z,-1.94
2023-11-30T18:06:34.748Z,-1.91
2023-11-30T18:09:01.820Z,-1.94
2023-11-30T18:11:28.859Z,-1.85
2023-11-30T18:13:57.134Z,-1.78
2023-11-30T18:16:24.209Z,-1.81
2023-11-30T18:18:51.201Z,-1.92
2023-11-30T18:21:18.279Z,-1.87
2023-11-30T18:23:45.435Z,-1.85
2023-11-30T18:26:12.400Z,-1.83
2023-11-30T18:28:39.770Z,-1.83
2023-11-30T18:31:16.349Z,-1.83
2023-11-30T18:33:47.996Z,-1.77
2023-11-30T18:36:15.097Z,-1.69
2023-11-30T18:38:50.097Z,-1.83
2023-11-30T18:41:22.287Z,-1.77
2023-11-30T18:43:50.724Z,-1.77
2023-11-30T18:46:18.618Z,-1.78
2023-11-30T18:48:46.640Z,-1.78
2023-11-30T18:51:13.704Z,-1.69
2023-11-30T18:53:40.709Z,-1.69
2023-11-30T18:56:08.175Z,-1.79
2023-11-30T18:58:35.432Z,-1.75
2023-11-30T19:01:02.857Z,-1.51
2023-11-30T19:03:30.056Z,-1.55
2023-11-30T19:05:57.832Z,-1.57
2023-11-30T19:08:24.864Z,-1.58
2023-11-30T19:10:52.874Z,-1.57
2023-11-30T19:13:20.017Z,-1.52
2023-11-30T19:15:50.704Z,-1.59
2023-11-30T19:18:18.131Z,-1.71
2023-11-30T19:20:45.307Z,-1.64
2023-11-30T19:23:12.546Z,-1.71
2023-11-30T19:25:42.819Z,-1.74
2023-11-30T19:28:10.287Z,-1.71
2023-11-30T19:30:38.775Z,-1.73
2023-11-30T19:33:05.942Z,-1.75
2023-11-30T19:35:36.637Z,-1.67
2023-11-30T19:38:13.982Z,-1.60
2023-11-30T19:40:41.184Z,-1.59
2023-11-30T19:43:13.377Z,-1.52
2023-11-30T19:48:39.005Z,-1.53
2023-11-30T19:51:07.357Z,-1.54
2023-11-30T19:53:42.442Z,-1.51
2023-11-30T19:56:17.264Z,-1.45
2023-11-30T19:58:45.113Z,-1.42
2023-11-30T20:01:41.835Z,-1.47
2023-11-30T20:04:22.518Z,-1.42
2023-11-30T20:06:59.741Z,-1.46
2023-11-30T20:09:32.358Z,-1.45
2023-11-30T20:12:03.708Z,-1.38
2023-11-30T20:14:30.739Z,-1.32
2023-11-30T20:17:00.920Z,-1.35
2023-11-30T20:19:28.123Z,-1.45
2023-11-30T20:22:06.246Z,-1.46
2023-11-30T20:24:41.441Z,-1.41
2023-11-30T20:27:12.996Z,-1.38
2023-11-30T20:29:39.937Z,-1.43
2023-11-30T20:32:07.081Z,-1.42
2023-11-30T20:34:36.367Z,-1.54
2023-11-30T20:37:04.608Z,-1.40
2023-11-30T20:39:31.747Z,-1.41
2023-11-30T20:42:00.304Z,-1.34
2023-11-30T20:44:28.165Z,-1.38
2023-11-30T20:46:56.307Z,-1.35
2023-11-30T20:49:23.276Z,-1.30
2023-11-30T20:51:53.754Z,-1.37
2023-11-30T20:54:20.905Z,-1.37
2023-11-30T20:56:49.940Z,-1.30
2023-11-30T20:59:18.181Z,-1.39
2023-11-30T21:01:45.872Z,-1.41
2023-11-30T21:04:13.695Z,-1.44
2023-11-30T21:06:41.119Z,-1.37
2023-11-30T21:09:08.287Z,-1.33
2023-11-30T21:11:39.150Z,-1.28
2023-11-30T21:14:07.060Z,-1.25
2023-11-30T21:16:34.163Z,-1.24
2023-11-30T21:19:01.365Z,-1.20
2023-11-30T21:21:28.606Z,-1.20
2023-11-30T21:23:55.624Z,-1.20
2023-11-30T21:26:22.704Z,-1.21
2023-11-30T21:28:49.738Z,-1.16
2023-11-30T21:31:17.327Z,-1.15
2023-11-30T21:33:44.545Z,-1.14
2023-11-30T21:36:14.689Z,-1.14
2023-11-30T21:38:42.076Z,-1.15
2023-11-30T21:41:09.116Z,-1.11
2023-11-30T21:43:36.098Z,-1.14
2023-11-30T21:46:03.615Z,-1.10
2023-11-30T21:48:30.785Z,-1.07
2023-11-30T21:50:57.938Z,-1.18
2023-11-30T21:53:25.182Z,-1.25
2023-11-30T21:55:52.214Z,-1.23
2023-11-30T21:58:20.026Z,-1.24
2023-11-30T22:00:47.263Z,-1.21
2023-11-30T22:03:17.698Z,-1.23
2023-11-30T22:05:45.563Z,-1.27
2023-11-30T22:08:12.622Z,-1.17
2023-11-30T22:10:39.813Z,-1.12
2023-11-30T22:13:06.775Z,-1.11
2023-11-30T22:15:33.746Z,-1.05
2023-11-30T22:18:01.238Z,-1.01
2023-11-30T22:20:28.856Z,-0.98
2023-11-30T22:22:55.828Z,-1.01
2023-11-30T22:25:24.045Z,-1.00
2023-11-30T22:27:51.187Z,-1.02
2023-11-30T22:30:18.126Z,-1.07
2023-11-30T22:32:45.152Z,-1.05
2023-11-30T22:35:12.131Z,-1.07
2023-11-30T22:37:39.229Z,-0.98
2023-11-30T22:40:07.014Z,-0.94
2023-11-30T22:42:34.673Z,-0.93
2023-11-30T22:45:02.346Z,-0.93
2023-11-30T22:47:29.432Z,-0.94
2023-11-30T22:49:56.553Z,-0.91
2023-11-30T22:52:26.656Z,-0.92
2023-11-30T22:54:53.905Z,-0.96
2023-11-30T22:57:20.993Z,-1.13
2023-11-30T22:59:48.049Z,-1.08
2023-11-30T23:02:15.228Z,-1.17
2023-11-30T23:04:42.518Z,-1.14
2023-11-30T23:07:10.478Z,-1.09
2023-11-30T23:09:38.128Z,-1.13
2023-11-30T23:12:05.354Z,-1.11
2023-11-30T23:14:32.516Z,-0.95
2023-11-30T23:16:59.474Z,-0.94
2023-11-30T23:19:28.719Z,-0.92
2023-11-30T23:21:55.859Z,-1.03
2023-11-30T23:24:28.746Z,-0.94
2023-11-30T23:26:58.444Z,-0.91
2023-11-30T23:29:25.395Z,-0.90
2023-11-30T23:31:52.551Z,-0.97
2023-11-30T23:34:19.587Z,-1.06
2023-11-30T23:36:46.718Z,-1.08
2023-11-30T23:39:13.674Z,-1.07
2023-11-30T23:41:40.830Z,-0.97
2023-11-30T23:44:07.908Z,-0.95
2023-11-30T23:46:35.119Z,-0.87
2023-11-30T23:49:02.299Z,-0.89
2023-11-30T23:51:29.496Z,-0.91
2023-11-30T23:53:56.412Z,-0.90
2023-11-30T23:56:23.385Z,-0.94
2023-11-30T23:58:50.336Z,-0.95
